Time;durP1;ratioP1;P1;durP2;ratioP2;P2;SDS_P1;SDS_P2;PMS_P1;PMS_P2;Temp;Humidity;BMP_temperature;BMP_pressure;BME280_temperature;BME280_humidity;BME280_pressure;Samples;Min_cycle;Max_cycle;Signal;HPM_P1;HPM_P2
2021/11/30 00:01:09;;;;;;;5.88;3.65;;;;;;;;;;5075145;28;20069;-78
2021/11/30 00:03:40;;;;;;;5.18;3.67;;;;;;;;;;5075000;28;20036;-78
2021/11/30 00:06:06;;;;;;;6.88;5.82;;;;;;;;;;5075157;28;20459;-78
2021/11/30 00:08:34;;;;;;;4.95;3.80;;;;;;;;;;5075180;28;20036;-76
2021/11/30 00:11:06;;;;;;;4.97;3.85;;;;;;;;;;5075062;28;20441;-75
2021/11/30 00:13:33;;;;;;;6.53;3.42;;;;;;;;;;5090601;28;20044;-75
2021/11/30 00:15:59;;;;;;;7.55;4.22;;;;;;;;;;5074947;28;20036;-77
2021/11/30 00:18:27;;;;;;;7.78;5.68;;;;;;;;;;5075078;28;20378;-77
2021/11/30 00:20:53;;;;;;;7.05;5.25;;;;;;;;;;5074780;28;20024;-76
2021/11/30 00:23:20;;;;;;;5.45;4.05;;;;;;;;;;5074611;28;20104;-76
2021/11/30 00:25:47;;;;;;;5.53;4.00;;;;;;;;;;5074884;28;20052;-77
2021/11/30 00:28:13;;;;;;;8.35;4.63;;;;;;;;;;5074730;28;20020;-78
2021/11/30 00:30:41;;;;;;;7.10;4.55;;;;;;;;;;5074649;28;20030;-76
2021/11/30 00:33:08;;;;;;;5.80;3.55;;;;;;;;;;5074249;28;20056;-75
2021/11/30 00:35:34;;;;;;;5.10;3.17;;;;;;;;;;5074694;28;20103;-79
2021/11/30 00:38:02;;;;;;;6.07;3.50;;;;;;;;;;5074464;28;20075;-78
2021/11/30 00:40:28;;;;;;;7.05;5.22;;;;;;;;;;5074488;28;20033;-77
2021/11/30 00:42:56;;;;;;;7.82;4.90;;;;;;;;;;5074137;28;20060;-75
2021/11/30 00:45:24;;;;;;;6.30;4.70;;;;;;;;;;5074710;28;20035;-77
2021/11/30 00:47:55;;;;;;;6.00;4.57;;;;;;;;;;5074263;28;20037;-78
2021/11/30 00:50:22;;;;;;;5.15;4.30;;;;;;;;;;5074202;28;20110;-78
2021/11/30 00:52:49;;;;;;;3.90;2.90;;;;;;;;;;5074140;28;20021;-77
2021/11/30 00:55:15;;;;;;;3.15;2.70;;;;;;;;;;5074165;28;20064;-78
2021/11/30 00:57:42;;;;;;;3.80;2.30;;;;;;;;;;5073922;28;20029;-77
2021/11/30 01:00:13;;;;;;;2.47;2.00;;;;;;;;;;5089616;28;20483;-76
2021/11/30 01:02:39;;;;;;;3.58;2.30;;;;;;;;;;5072820;28;20035;-79
2021/11/30 01:05:06;;;;;;;3.08;2.42;;;;;;;;;;5074514;28;20024;-75
2021/11/30 01:07:35;;;;;;;2.90;1.70;;;;;;;;;;5074274;28;20047;-78
2021/11/30 01:10:01;;;;;;;3.40;2.42;;;;;;;;;;5074191;28;20024;-77
2021/11/30 01:12:27;;;;;;;3.45;2.30;;;;;;;;;;5073677;28;20099;-76
2021/11/30 01:14:53;;;;;;;4.88;2.13;;;;;;;;;;5073755;28;20068;-76
2021/11/30 01:17:19;;;;;;;2.85;2.13;;;;;;;;;;5089997;28;20388;-78
2021/11/30 01:19:45;;;;;;;3.28;1.85;;;;;;;;;;5076055;28;20038;-75
2021/11/30 01:22:11;;;;;;;1.25;0.30;;;;;;;;;;5093209;28;20475;-82
2021/11/30 01:24:37;;;;;;;0.88;0.60;;;;;;;;;;5093579;28;20032;-77
2021/11/30 01:27:04;;;;;;;0.75;0.45;;;;;;;;;;5093833;28;20059;-83
2021/11/30 01:29:30;;;;;;;1.10;0.20;;;;;;;;;;5093785;28;20111;-80
2021/11/30 01:31:56;;;;;;;0.20;0.10;;;;;;;;;;5093944;28;20467;-78
2021/11/30 01:34:22;;;;;;;0.50;0.10;;;;;;;;;;5093881;28;20475;-80
2021/11/30 01:36:50;;;;;;;0.82;0.20;;;;;;;;;;5093533;28;20136;-78
2021/11/30 01:39:16;;;;;;;0.35;0.15;;;;;;;;;;5093934;28;20031;-78
2021/11/30 01:41:43;;;;;;;1.40;0.30;;;;;;;;;;5093748;28;20034;-77
2021/11/30 01:44:23;;;;;;;0.47;0.10;;;;;;;;;;5093813;28;20032;-82
2021/11/30 01:49:35;;;;;;;0.35;0.10;;;;;;;;;;5093567;28;20081;-77
2021/11/30 01:52:05;;;;;;;0.40;0.10;;;;;;;;;;5093415;28;20430;-76
2021/11/30 01:54:32;;;;;;;0.52;0.10;;;;;;;;;;5093497;28;20036;-80
2021/11/30 01:56:58;;;;;;;0.10;0.10;;;;;;;;;;5093346;28;20047;-78
2021/11/30 01:59:25;;;;;;;0.08;0.00;;;;;;;;;;5093452;28;20443;-78
2021/11/30 02:01:51;;;;;;;0.13;0.10;;;;;;;;;;5093363;28;20048;-79
2021/11/30 02:04:18;;;;;;;1.30;0.10;;;;;;;;;;5093381;28;20079;-80
2021/11/30 02:06:44;;;;;;;0.30;0.15;;;;;;;;;;5093943;28;20024;-78
2021/11/30 02:09:10;;;;;;;0.55;0.10;;;;;;;;;;5097549;28;20056;-77
2021/11/30 02:11:36;;;;;;;0.65;0.10;;;;;;;;;;5097501;28;20028;-79
2021/11/30 02:14:03;;;;;;;0.25;0.20;;;;;;;;;;5096535;28;20020;-80
2021/11/30 02:16:29;;;;;;;0.13;0.10;;;;;;;;;;5097257;28;20020;-77
2021/11/30 02:19:00;;;;;;;0.20;0.10;;;;;;;;;;5097453;28;20115;-80
2021/11/30 02:21:28;;;;;;;0.20;0.20;;;;;;;;;;5096099;28;20032;-79
2021/11/30 02:26:20;;;;;;;0.25;0.10;;;;;;;;;;5097300;28;20113;-78
2021/11/30 02:28:50;;;;;;;0.52;0.30;;;;;;;;;;5097465;28;20035;-79
2021/11/30 02:31:18;;;;;;;0.05;0.05;;;;;;;;;;5095833;28;20059;-77
2021/11/30 02:33:45;;;;;;;0.32;0.10;;;;;;;;;;5096849;28;20126;-81
2021/11/30 02:36:31;;;;;;;0.10;0.00;;;;;;;;;;5097168;28;20480;-80
2021/11/30 02:38:59;;;;;;;0.20;0.10;;;;;;;;;;5097040;28;20058;-79
2021/11/30 02:41:25;;;;;;;0.70;0.10;;;;;;;;;;5096875;28;20393;-79
2021/11/30 02:43:52;;;;;;;0.22;0.10;;;;;;;;;;5096965;28;20061;-78
2021/11/30 02:46:31;;;;;;;0.20;0.10;;;;;;;;;;5096966;28;20028;-80
2021/11/30 02:48:57;;;;;;;0.35;0.13;;;;;;;;;;5096643;28;20028;-77
2021/11/30 02:51:25;;;;;;;0.45;0.10;;;;;;;;;;5096871;28;20070;-78
2021/11/30 02:53:51;;;;;;;0.52;0.30;;;;;;;;;;5096692;28;20032;-77
2021/11/30 02:56:17;;;;;;;0.45;0.20;;;;;;;;;;5096616;28;20032;-79
2021/11/30 02:58:43;;;;;;;3.63;0.30;;;;;;;;;;5096446;28;20483;-79
2021/11/30 03:01:11;;;;;;;0.65;0.17;;;;;;;;;;5096529;28;20095;-81
2021/11/30 03:03:37;;;;;;;0.40;0.20;;;;;;;;;;5095005;28;20491;-78
2021/11/30 03:06:04;;;;;;;0.90;0.20;;;;;;;;;;5096482;28;20102;-77
2021/11/30 03:08:30;;;;;;;0.35;0.10;;;;;;;;;;5096409;28;20057;-77
2021/11/30 03:10:56;;;;;;;0.55;0.10;;;;;;;;;;5096607;28;20024;-79
2021/11/30 03:13:23;;;;;;;0.40;0.22;;;;;;;;;;5096423;28;20045;-77
2021/11/30 03:15:56;;;;;;;0.40;0.20;;;;;;;;;;5096316;28;20024;-77
2021/11/30 03:18:22;;;;;;;0.60;0.20;;;;;;;;;;5095415;28;20024;-78
2021/11/30 03:20:48;;;;;;;0.47;0.20;;;;;;;;;;5096108;28;20027;-81
2021/11/30 03:23:14;;;;;;;0.57;0.35;;;;;;;;;;5096171;28;20127;-78
2021/11/30 03:25:42;;;;;;;2.20;0.75;;;;;;;;;;5095957;28;20028;-80
2021/11/30 03:28:09;;;;;;;2.80;0.80;;;;;;;;;;5095947;28;20089;-78
2021/11/30 03:30:38;;;;;;;2.42;0.80;;;;;;;;;;5096074;28;20035;-76
2021/11/30 03:35:49;;;;;;;0.70;0.30;;;;;;;;;;5095856;28;20077;-78
2021/11/30 03:38:15;;;;;;;0.50;0.40;;;;;;;;;;5095810;28;20082;-83
2021/11/30 03:40:41;;;;;;;1.05;0.70;;;;;;;;;;5095649;28;20503;-78
2021/11/30 03:43:07;;;;;;;1.00;0.45;;;;;;;;;;5095816;28;20032;-76
2021/11/30 03:45:33;;;;;;;1.15;0.60;;;;;;;;;;5095873;28;20463;-80
2021/11/30 03:47:59;;;;;;;1.40;0.68;;;;;;;;;;5095742;28;20055;-77
2021/11/30 03:50:25;;;;;;;3.03;1.60;;;;;;;;;;5095526;28;20486;-79
2021/11/30 03:52:52;;;;;;;1.55;1.10;;;;;;;;;;5095378;28;20093;-80
2021/11/30 03:55:18;;;;;;;1.80;1.20;;;;;;;;;;5095624;28;20044;-79
2021/11/30 03:57:44;;;;;;;1.33;1.00;;;;;;;;;;5095879;28;20035;-76
2021/11/30 04:00:11;;;;;;;1.23;0.90;;;;;;;;;;5095535;28;20470;-78
2021/11/30 04:02:38;;;;;;;1.75;1.30;;;;;;;;;;5095413;28;20031;-80
2021/11/30 04:05:05;;;;;;;2.55;1.10;;;;;;;;;;5095475;28;20455;-78
2021/11/30 04:07:31;;;;;;;1.40;0.95;;;;;;;;;;5095183;28;20024;-81
2021/11/30 04:09:57;;;;;;;1.40;1.20;;;;;;;;;;5095222;28;20040;-79
2021/11/30 04:12:23;;;;;;;1.67;1.08;;;;;;;;;;5095248;28;20482;-80
2021/11/30 04:14:49;;;;;;;1.50;1.00;;;;;;;;;;5093856;28;20031;-79
2021/11/30 04:17:16;;;;;;;1.40;0.93;;;;;;;;;;5095072;28;20028;-81
2021/11/30 04:19:42;;;;;;;1.58;1.08;;;;;;;;;;5093777;28;20032;-78
2021/11/30 04:22:08;;;;;;;1.27;0.77;;;;;;;;;;5095404;28;20028;-80
2021/11/30 04:24:34;;;;;;;1.90;1.35;;;;;;;;;;5094783;28;20032;-78
2021/11/30 04:27:00;;;;;;;1.85;1.67;;;;;;;;;;5094839;28;20028;-81
2021/11/30 04:29:26;;;;;;;1.75;1.17;;;;;;;;;;5094554;28;20032;-78
2021/11/30 04:31:52;;;;;;;1.98;1.20;;;;;;;;;;5094463;28;20024;-81
2021/11/30 04:34:19;;;;;;;1.42;1.10;;;;;;;;;;5094828;28;20032;-78
2021/11/30 04:36:45;;;;;;;1.88;1.25;;;;;;;;;;5094824;28;20597;-80
2021/11/30 04:39:11;;;;;;;2.80;1.13;;;;;;;;;;5094658;28;20020;-80
2021/11/30 04:41:37;;;;;;;1.60;1.23;;;;;;;;;;5094665;28;20024;-84
2021/11/30 04:44:06;;;;;;;1.98;1.30;;;;;;;;;;5094513;28;20036;-80
2021/11/30 04:46:41;;;;;;;1.63;1.20;;;;;;;;;;5094503;28;20111;-79
2021/11/30 04:51:53;;;;;;;2.30;1.65;;;;;;;;;;5095109;28;20034;-78
2021/11/30 04:54:21;;;;;;;2.83;1.58;;;;;;;;;;5094457;28;20030;-80
2021/11/30 04:56:48;;;;;;;4.15;1.88;;;;;;;;;;5094447;28;20056;-81
2021/11/30 04:59:14;;;;;;;1.80;1.30;;;;;;;;;;5094451;28;20020;-80
2021/11/30 05:01:40;;;;;;;2.17;1.75;;;;;;;;;;5094184;28;20055;-80
2021/11/30 05:04:06;;;;;;;2.55;1.75;;;;;;;;;;5093250;28;20040;-78
2021/11/30 05:06:32;;;;;;;2.28;1.75;;;;;;;;;;5094429;28;20047;-86
2021/11/30 05:09:02;;;;;;;3.22;2.15;;;;;;;;;;5094077;28;20081;-82
2021/11/30 05:11:28;;;;;;;2.28;1.45;;;;;;;;;;5093066;28;20028;-81
2021/11/30 05:13:54;;;;;;;2.88;1.85;;;;;;;;;;5094015;28;20455;-79
2021/11/30 05:16:20;;;;;;;1.77;1.30;;;;;;;;;;5092840;28;20525;-82
2021/11/30 05:18:47;;;;;;;3.17;2.42;;;;;;;;;;5093101;28;20550;-80
2021/11/30 05:21:13;;;;;;;2.00;1.45;;;;;;;;;;5094037;28;20028;-81
2021/11/30 05:23:41;;;;;;;4.38;1.95;;;;;;;;;;5075720;28;20127;-80
2021/11/30 05:26:08;;;;;;;2.50;1.65;;;;;;;;;;5094562;28;20383;-81
2021/11/30 05:28:35;;;;;;;1.83;1.40;;;;;;;;;;5092165;28;20032;-80
2021/11/30 05:31:02;;;;;;;2.53;1.73;;;;;;;;;;5093769;28;20046;-78
2021/11/30 05:33:28;;;;;;;2.13;1.58;;;;;;;;;;5093414;28;20128;-80
2021/11/30 05:35:55;;;;;;;2.65;1.83;;;;;;;;;;5093151;28;20024;-81
2021/11/30 05:38:21;;;;;;;3.67;1.85;;;;;;;;;;5093712;28;20024;-80
2021/11/30 05:40:48;;;;;;;2.70;1.88;;;;;;;;;;5093685;28;20028;-85
2021/11/30 05:43:16;;;;;;;2.53;1.35;;;;;;;;;;5092813;28;20020;-80
2021/11/30 05:45:42;;;;;;;1.63;1.33;;;;;;;;;;5093170;28;20103;-80
2021/11/30 05:48:09;;;;;;;3.97;1.83;;;;;;;;;;5093557;28;20050;-80
2021/11/30 05:50:35;;;;;;;3.42;2.58;;;;;;;;;;5093380;28;20190;-79
2021/11/30 05:53:01;;;;;;;5.57;3.63;;;;;;;;;;5093468;28;20505;-77
2021/11/30 05:55:27;;;;;;;4.72;3.05;;;;;;;;;;5092096;28;20122;-79
2021/11/30 05:57:54;;;;;;;4.50;3.05;;;;;;;;;;5093542;28;20486;-80
2021/11/30 06:00:20;;;;;;;4.15;2.72;;;;;;;;;;5093448;28;20099;-79
2021/11/30 06:05:36;;;;;;;3.40;2.40;;;;;;;;;;5087316;28;20040;-81
2021/11/30 06:08:03;;;;;;;6.07;4.10;;;;;;;;;;5092359;28;20055;-79
2021/11/30 06:10:29;;;;;;;6.05;3.85;;;;;;;;;;5091923;28;20032;-81
2021/11/30 06:12:55;;;;;;;3.42;2.60;;;;;;;;;;5092517;28;20085;-76
2021/11/30 06:15:23;;;;;;;6.15;3.97;;;;;;;;;;5092210;28;20021;-78
2021/11/30 06:17:49;;;;;;;6.03;3.78;;;;;;;;;;5091706;28;20043;-78
2021/11/30 06:20:17;;;;;;;5.93;3.60;;;;;;;;;;5092972;28;20035;-77
2021/11/30 06:22:43;;;;;;;6.88;4.30;;;;;;;;;;5091316;28;20099;-82
2021/11/30 06:25:10;;;;;;;3.90;2.83;;;;;;;;;;5090994;28;20394;-79
2021/11/30 06:27:36;;;;;;;8.13;5.00;;;;;;;;;;5090349;28;20028;-84
2021/11/30 06:30:02;;;;;;;6.55;4.25;;;;;;;;;;5089898;28;20479;-82
2021/11/30 06:32:29;;;;;;;9.57;6.20;;;;;;;;;;5095350;28;20459;-79
2021/11/30 06:34:55;;;;;;;6.40;4.53;;;;;;;;;;5090353;28;20031;-78
2021/11/30 06:37:24;;;;;;;6.25;4.40;;;;;;;;;;5092168;28;20028;-81
2021/11/30 06:39:52;;;;;;;7.25;3.97;;;;;;;;;;5092470;28;20066;-83
2021/11/30 06:42:19;;;;;;;7.05;4.40;;;;;;;;;;5091355;28;20101;-82
2021/11/30 06:44:47;;;;;;;5.20;3.70;;;;;;;;;;5092534;28;20044;-79
2021/11/30 06:47:17;;;;;;;5.38;3.55;;;;;;;;;;5090432;28;20036;-81
2021/11/30 06:49:43;;;;;;;5.88;4.40;;;;;;;;;;5091744;28;20031;-80
2021/11/30 06:52:09;;;;;;;8.13;5.38;;;;;;;;;;5109335;28;20557;-80
2021/11/30 06:54:36;;;;;;;4.47;3.10;;;;;;;;;;5114488;28;20599;-81
2021/11/30 06:57:02;;;;;;;8.25;6.13;;;;;;;;;;5114523;28;20114;-79
2021/11/30 06:59:29;;;;;;;6.10;4.25;;;;;;;;;;5114248;28;20031;-79
2021/11/30 07:01:55;;;;;;;6.75;4.53;;;;;;;;;;5113252;28;20036;-81
2021/11/30 07:04:23;;;;;;;4.97;4.28;;;;;;;;;;5113068;28;20138;-82
2021/11/30 07:07:02;;;;;;;6.75;5.65;;;;;;;;;;5114528;28;20470;-84
2021/11/30 07:14:44;;;;;;;8.55;4.70;;;;;;;;;;5116393;28;20074;-82
2021/11/30 07:17:10;;;;;;;7.80;5.55;;;;;;;;;;5114395;28;20019;-81
2021/11/30 07:19:37;;;;;;;5.93;4.57;;;;;;;;;;5115276;28;20051;-82
2021/11/30 07:22:03;;;;;;;8.38;5.85;;;;;;;;;;5114904;28;20079;-81
2021/11/30 07:24:32;;;;;;;8.38;5.40;;;;;;;;;;5114624;28;20035;-83
2021/11/30 07:26:58;;;;;;;11.38;7.22;;;;;;;;;;5113050;28;20034;-77
2021/11/30 07:29:24;;;;;;;8.50;5.50;;;;;;;;;;5113499;28;20024;-80
2021/11/30 07:31:50;;;;;;;9.10;6.15;;;;;;;;;;5114225;28;20082;-85
2021/11/30 07:34:16;;;;;;;7.95;5.57;;;;;;;;;;5113773;28;20052;-82
2021/11/30 07:36:42;;;;;;;7.53;5.18;;;;;;;;;;5114116;28;20025;-80
2021/11/30 07:39:09;;;;;;;9.07;6.45;;;;;;;;;;5114122;28;20535;-84
2021/11/30 07:41:35;;;;;;;9.38;6.60;;;;;;;;;;5113807;28;20043;-82
2021/11/30 07:44:03;;;;;;;9.90;7.07;;;;;;;;;;5113635;28;20034;-80
2021/11/30 07:46:29;;;;;;;10.60;8.45;;;;;;;;;;5093529;28;20481;-85
2021/11/30 07:48:57;;;;;;;8.45;5.97;;;;;;;;;;5093586;28;20028;-86
2021/11/30 07:51:26;;;;;;;9.15;6.90;;;;;;;;;;5096041;28;20131;-85
2021/11/30 07:53:53;;;;;;;6.00;4.00;;;;;;;;;;5074753;28;20051;-82
2021/11/30 07:56:19;;;;;;;11.25;7.47;;;;;;;;;;5081602;28;20044;-79
2021/11/30 07:58:48;;;;;;;6.40;4.40;;;;;;;;;;5091676;28;20035;-84
2021/11/30 08:01:17;;;;;;;8.85;5.47;;;;;;;;;;5091968;28;20101;-83
2021/11/30 08:03:43;;;;;;;6.03;4.18;;;;;;;;;;5092732;28;20044;-83
2021/11/30 08:06:13;;;;;;;7.07;4.90;;;;;;;;;;5090842;28;20489;-80
2021/11/30 08:08:41;;;;;;;7.55;5.07;;;;;;;;;;5108620;28;20039;-82
2021/11/30 08:11:07;;;;;;;5.68;4.53;;;;;;;;;;5113310;28;20035;-81
2021/11/30 08:13:34;;;;;;;8.95;5.40;;;;;;;;;;5112919;28;20031;-80
2021/11/30 08:16:00;;;;;;;8.02;5.07;;;;;;;;;;5113011;28;20386;-78
2021/11/30 08:18:26;;;;;;;8.77;5.95;;;;;;;;;;5111961;28;20460;-81
2021/11/30 08:20:53;;;;;;;6.68;5.05;;;;;;;;;;5113334;28;20736;-80
2021/11/30 08:23:19;;;;;;;10.73;7.95;;;;;;;;;;5113065;28;20051;-83
2021/11/30 08:25:45;;;;;;;11.55;8.10;;;;;;;;;;5112929;28;20020;-82
2021/11/30 08:28:12;;;;;;;5.32;4.10;;;;;;;;;;5110359;28;20498;-77
2021/11/30 08:30:38;;;;;;;9.20;5.50;;;;;;;;;;5089897;28;20016;-82
2021/11/30 08:33:04;;;;;;;10.65;7.65;;;;;;;;;;5085293;28;20048;-79
2021/11/30 08:35:30;;;;;;;7.30;5.15;;;;;;;;;;5082362;28;20391;-78
2021/11/30 08:37:56;;;;;;;7.05;5.18;;;;;;;;;;5093297;28;20031;-81
2021/11/30 08:40:23;;;;;;;6.22;4.55;;;;;;;;;;5091721;28;20398;-79
2021/11/30 08:42:49;;;;;;;6.45;4.20;;;;;;;;;;5090471;28;20055;-83
2021/11/30 08:45:15;;;;;;;9.52;6.10;;;;;;;;;;5091646;28;20031;-80
2021/11/30 08:47:41;;;;;;;7.35;4.53;;;;;;;;;;5092308;28;20241;-82
2021/11/30 08:50:11;;;;;;;5.13;3.40;;;;;;;;;;5092168;28;20034;-81
2021/11/30 08:52:37;;;;;;;4.78;4.15;;;;;;;;;;5092197;28;20023;-81
2021/11/30 08:55:04;;;;;;;10.15;6.15;;;;;;;;;;5092468;28;20073;-79
2021/11/30 08:57:31;;;;;;;4.35;3.20;;;;;;;;;;5092032;28;20028;-79
2021/11/30 08:59:57;;;;;;;8.15;4.63;;;;;;;;;;5092231;28;20451;-82
2021/11/30 09:02:25;;;;;;;6.80;4.65;;;;;;;;;;5092319;28;20119;-80
2021/11/30 09:04:51;;;;;;;10.10;6.53;;;;;;;;;;5091145;28;20109;-80
2021/11/30 09:07:17;;;;;;;4.82;3.70;;;;;;;;;;5090308;28;20036;-80
2021/11/30 09:09:48;;;;;;;7.18;5.10;;;;;;;;;;5092068;28;20438;-80
2021/11/30 09:12:16;;;;;;;8.32;4.93;;;;;;;;;;5092175;28;20031;-79
2021/11/30 09:14:43;;;;;;;5.22;3.88;;;;;;;;;;5092017;28;20032;-84
2021/11/30 09:17:09;;;;;;;5.72;4.35;;;;;;;;;;5091347;28;20036;-81
2021/11/30 09:19:35;;;;;;;8.45;5.05;;;;;;;;;;5091562;28;20084;-78
2021/11/30 09:22:01;;;;;;;9.10;6.18;;;;;;;;;;5090705;28;20031;-83
2021/11/30 09:24:27;;;;;;;9.30;5.10;;;;;;;;;;5090972;28;20621;-81
2021/11/30 09:26:53;;;;;;;6.90;4.13;;;;;;;;;;5091799;28;20052;-84
2021/11/30 09:29:20;;;;;;;7.07;4.75;;;;;;;;;;5092254;28;20039;-83
2021/11/30 09:31:46;;;;;;;6.55;4.32;;;;;;;;;;5090313;28;20128;-82
2021/11/30 09:34:12;;;;;;;7.05;5.45;;;;;;;;;;5090627;28;20498;-83
2021/11/30 09:36:43;;;;;;;3.67;2.92;;;;;;;;;;5091201;28;20028;-85
2021/11/30 09:39:09;;;;;;;8.07;4.47;;;;;;;;;;5090150;28;20024;-78
2021/11/30 09:41:36;;;;;;;8.15;5.43;;;;;;;;;;5091800;28;20047;-82
2021/11/30 09:44:02;;;;;;;9.00;6.03;;;;;;;;;;5089095;28;20470;-79
2021/11/30 09:46:28;;;;;;;9.68;5.28;;;;;;;;;;5090908;28;20030;-80
2021/11/30 09:48:54;;;;;;;8.93;5.70;;;;;;;;;;5082712;28;20557;-79
2021/11/30 09:51:29;;;;;;;9.23;5.63;;;;;;;;;;5090201;28;20028;-84
2021/11/30 09:53:57;;;;;;;7.78;5.30;;;;;;;;;;5095845;28;20040;-83
2021/11/30 09:56:24;;;;;;;9.27;5.25;;;;;;;;;;5080193;28;20028;-83
2021/11/30 09:58:51;;;;;;;4.72;3.70;;;;;;;;;;5090036;28;20024;-85
2021/11/30 10:01:20;;;;;;;15.30;6.57;;;;;;;;;;5089797;28;20532;-87
2021/11/30 10:03:46;;;;;;;8.07;5.70;;;;;;;;;;5090626;28;20433;-88
2021/11/30 10:06:13;;;;;;;6.55;5.18;;;;;;;;;;5091260;28;20032;-78
2021/11/30 10:08:43;;;;;;;5.50;3.83;;;;;;;;;;5091320;28;20387;-79
2021/11/30 10:11:11;;;;;;;9.05;5.40;;;;;;;;;;5092280;28;20392;-79
2021/11/30 10:13:37;;;;;;;6.13;4.22;;;;;;;;;;5094889;28;20103;-78
2021/11/30 10:16:05;;;;;;;6.13;5.18;;;;;;;;;;5110825;28;20122;-78
2021/11/30 10:18:33;;;;;;;6.22;4.40;;;;;;;;;;5111692;28;20035;-84
2021/11/30 10:21:20;;;;;;;6.32;4.22;;;;;;;;;;5111749;28;20549;-81
2021/11/30 10:23:55;;;;;;;5.07;3.92;;;;;;;;;;5110723;28;20032;-76
2021/11/30 10:26:33;;;;;;;10.23;7.18;;;;;;;;;;5111157;28;20028;-78
2021/11/30 10:29:03;;;;;;;5.65;4.25;;;;;;;;;;5112157;28;20589;-80
2021/11/30 10:31:32;;;;;;;6.13;3.88;;;;;;;;;;5115108;28;20032;-64
2021/11/30 10:33:59;;;;;;;6.65;4.63;;;;;;;;;;5114372;28;20047;-76
2021/11/30 10:36:26;;;;;;;7.45;5.45;;;;;;;;;;5097033;28;20024;-86
2021/11/30 10:38:52;;;;;;;10.23;7.90;;;;;;;;;;5095032;28;20055;-83
2021/11/30 10:41:22;;;;;;;10.02;7.47;;;;;;;;;;5094958;28;20035;-83
2021/11/30 10:44:07;;;;;;;9.45;5.80;;;;;;;;;;5093906;28;20115;-82
2021/11/30 10:46:35;;;;;;;5.85;4.78;;;;;;;;;;5090781;28;20413;-79
2021/11/30 10:49:01;;;;;;;7.00;5.45;;;;;;;;;;5094546;28;20039;-80
2021/11/30 10:51:30;;;;;;;6.07;3.92;;;;;;;;;;5094171;28;20035;-83
2021/11/30 10:53:59;;;;;;;11.65;8.10;;;;;;;;;;5094342;28;20036;-78
2021/11/30 10:56:25;;;;;;;9.95;5.85;;;;;;;;;;5094181;28;20047;-80
2021/11/30 10:58:53;;;;;;;5.95;4.05;;;;;;;;;;5094534;28;20085;-81
2021/11/30 11:01:20;;;;;;;6.93;4.55;;;;;;;;;;5093514;28;20044;-81
2021/11/30 11:04:01;;;;;;;6.20;5.13;;;;;;;;;;5093967;28;20028;-81
2021/11/30 11:06:31;;;;;;;7.38;4.50;;;;;;;;;;5093471;28;20027;-82
2021/11/30 11:09:06;;;;;;;4.80;3.50;;;;;;;;;;5093709;28;20024;-80
2021/11/30 11:11:33;;;;;;;;;;;;;;;;;;5092255;28;20120;-79
2021/11/30 11:14:00;;;;;;;6.80;3.92;;;;;;;;;;5093817;28;19908;-82
2021/11/30 11:16:34;;;;;;;4.00;2.95;;;;;;;;;;5093075;28;20577;-84
2021/11/30 11:19:04;;;;;;;6.32;4.25;;;;;;;;;;5092328;28;20493;-83
2021/11/30 11:21:41;;;;;;;8.13;4.32;;;;;;;;;;5090847;28;20084;-82
2021/11/30 11:24:14;;;;;;;6.70;4.57;;;;;;;;;;5093976;28;20116;-81
2021/11/30 11:26:43;;;;;;;7.20;5.18;;;;;;;;;;5094921;28;20032;-79
2021/11/30 11:29:11;;;;;;;6.30;4.85;;;;;;;;;;5093328;28;20031;-83
2021/11/30 11:31:38;;;;;;;6.50;4.30;;;;;;;;;;5108678;28;20040;-80
2021/11/30 11:34:05;;;;;;;5.45;4.13;;;;;;;;;;5104226;28;20051;-81
2021/11/30 11:36:32;;;;;;;6.63;4.00;;;;;;;;;;5091911;28;20366;-79
2021/11/30 11:38:58;;;;;;;8.70;6.35;;;;;;;;;;5093160;28;20028;-79
2021/11/30 11:41:25;;;;;;;7.40;5.25;;;;;;;;;;5092713;28;20474;-83
2021/11/30 11:43:52;;;;;;;8.15;6.30;;;;;;;;;;5091870;28;20155;-84
2021/11/30 11:46:21;;;;;;;7.40;5.03;;;;;;;;;;5091468;28;20027;-80
2021/11/30 11:48:55;;;;;;;10.75;7.55;;;;;;;;;;5093353;28;20036;-83
2021/11/30 11:51:22;;;;;;;11.27;7.05;;;;;;;;;;5093080;28;20031;-85
2021/11/30 11:53:55;;;;;;;8.30;5.55;;;;;;;;;;5091196;28;20089;-82
2021/11/30 11:56:26;;;;;;;9.05;6.43;;;;;;;;;;5088128;28;20081;-80
2021/11/30 11:59:08;;;;;;;7.70;5.28;;;;;;;;;;5086934;28;20074;-83
2021/11/30 12:01:35;;;;;;;8.02;5.80;;;;;;;;;;5092485;28;20028;-80
2021/11/30 12:04:03;;;;;;;9.80;6.03;;;;;;;;;;5092345;28;20043;-78
2021/11/30 12:06:31;;;;;;;7.75;5.57;;;;;;;;;;5089259;28;20463;-81
2021/11/30 12:09:16;;;;;;;6.20;4.85;;;;;;;;;;5091790;28;20040;-79
2021/11/30 12:11:44;;;;;;;7.07;5.03;;;;;;;;;;5090739;28;20024;-80
2021/11/30 12:14:11;;;;;;;5.55;4.18;;;;;;;;;;5092044;28;20475;-81
2021/11/30 12:16:56;;;;;;;6.47;5.25;;;;;;;;;;5089482;28;20032;-81
2021/11/30 12:19:22;;;;;;;;;;;;;;;;;;5092189;28;20028;-80
2021/11/30 12:21:48;;;;;;;11.80;7.78;;;;;;;;;;5092027;28;19908;-81
2021/11/30 12:24:14;;;;;;;10.23;7.60;;;;;;;;;;5091840;28;20028;-82
2021/11/30 12:26:41;;;;;;;7.40;5.05;;;;;;;;;;5092490;28;20032;-80
2021/11/30 12:29:20;;;;;;;9.05;5.85;;;;;;;;;;5091478;28;20028;-82
2021/11/30 12:31:48;;;;;;;8.25;6.53;;;;;;;;;;5091908;28;20082;-82
2021/11/30 12:34:32;;;;;;;7.88;5.15;;;;;;;;;;5092010;28;20056;-83
2021/11/30 12:37:25;;;;;;;9.20;5.55;;;;;;;;;;5092708;28;20039;-84
2021/11/30 12:40:11;;;;;;;6.97;4.57;;;;;;;;;;5086208;28;20447;-86
2021/11/30 12:42:44;;;;;;;7.40;4.75;;;;;;;;;;5092604;28;20043;-82
2021/11/30 12:45:34;;;;;;;8.85;5.85;;;;;;;;;;5090536;28;20059;-82
2021/11/30 12:48:13;;;;;;;6.35;5.20;;;;;;;;;;5077708;28;20036;-82
2021/11/30 12:50:39;;;;;;;10.07;7.78;;;;;;;;;;5091982;28;20105;-84
2021/11/30 12:53:06;;;;;;;12.20;6.78;;;;;;;;;;5092080;28;20032;-82
2021/11/30 12:55:46;;;;;;;12.38;7.72;;;;;;;;;;5091951;28;20032;-84
2021/11/30 12:58:30;;;;;;;6.70;4.50;;;;;;;;;;5085584;28;20078;-80
2021/11/30 13:01:20;;;;;;;8.63;4.95;;;;;;;;;;5091302;28;20249;-80
2021/11/30 13:03:47;;;;;;;11.57;8.55;;;;;;;;;;5091800;28;20040;-77
2021/11/30 13:06:28;;;;;;;7.82;5.38;;;;;;;;;;5093077;28;20034;-85
2021/11/30 13:09:02;;;;;;;5.25;3.72;;;;;;;;;;5079701;28;20036;-81
2021/11/30 13:11:31;;;;;;;8.68;6.05;;;;;;;;;;5092311;28;20012;-80
2021/11/30 13:14:00;;;;;;;7.78;4.20;;;;;;;;;;5086908;28;20024;-81
2021/11/30 13:16:27;;;;;;;11.43;7.30;;;;;;;;;;5085740;28;20024;-78
2021/11/30 13:19:01;;;;;;;6.88;4.65;;;;;;;;;;5090920;28;20071;-83
2021/11/30 13:21:32;;;;;;;6.07;3.85;;;;;;;;;;5091598;28;20035;-85
2021/11/30 13:24:03;;;;;;;5.78;4.45;;;;;;;;;;5092180;28;20032;-80
2021/11/30 13:26:30;;;;;;;5.43;3.72;;;;;;;;;;5092672;28;20035;-80
2021/11/30 13:28:59;;;;;;;4.90;3.58;;;;;;;;;;5092807;28;20101;-78
2021/11/30 13:31:26;;;;;;;8.80;6.75;;;;;;;;;;5092160;28;20496;-76
2021/11/30 13:33:52;;;;;;;7.75;4.55;;;;;;;;;;5092110;28;20055;-80
2021/11/30 13:36:18;;;;;;;7.32;5.38;;;;;;;;;;5092661;28;20028;-80
2021/11/30 13:38:48;;;;;;;11.63;7.63;;;;;;;;;;5091906;28;20024;-81
2021/11/30 13:41:15;;;;;;;11.77;7.80;;;;;;;;;;5090283;28;20028;-81
2021/11/30 13:43:43;;;;;;;14.75;9.45;;;;;;;;;;5091739;28;20081;-82
2021/11/30 13:46:17;;;;;;;10.68;6.40;;;;;;;;;;5092110;28;20032;-80
2021/11/30 13:48:53;;;;;;;14.88;8.40;;;;;;;;;;5091473;28;20020;-85
2021/11/30 13:51:21;;;;;;;10.35;6.40;;;;;;;;;;5090572;28;20031;-81
2021/11/30 13:53:52;;;;;;;9.85;7.45;;;;;;;;;;5093643;28;20122;-83
2021/11/30 13:56:23;;;;;;;8.27;5.72;;;;;;;;;;5089257;28;20073;-79
2021/11/30 14:01:27;;;;;;;7.07;4.72;;;;;;;;;;5091480;28;20490;-79
2021/11/30 14:03:55;;;;;;;9.15;6.40;;;;;;;;;;5088061;28;20048;-79
2021/11/30 14:06:40;;;;;;;6.57;4.55;;;;;;;;;;5094684;28;20031;-82
2021/11/30 14:09:06;;;;;;;;;;;;;;;;;;5095155;28;20032;-84
2021/11/30 14:11:32;;;;;;;8.25;4.38;;;;;;;;;;5094303;28;20003;-81
2021/11/30 14:13:59;;;;;;;8.18;6.20;;;;;;;;;;5096010;28;20032;-80
2021/11/30 14:16:26;;;;;;;8.15;5.10;;;;;;;;;;5096205;28;20031;-80
2021/11/30 14:18:54;;;;;;;7.72;4.55;;;;;;;;;;5096239;28;20091;-85
2021/11/30 14:21:21;;;;;;;8.63;5.30;;;;;;;;;;5094777;28;20024;-81
2021/11/30 14:24:08;;;;;;;8.02;5.75;;;;;;;;;;5095786;28;20044;-79
2021/11/30 14:26:40;;;;;;;5.75;4.43;;;;;;;;;;5096204;28;20107;-84
2021/11/30 14:29:24;;;;;;;7.93;5.43;;;;;;;;;;5077701;28;20430;-82
2021/11/30 14:31:59;;;;;;;8.00;5.13;;;;;;;;;;5095546;28;20024;-81
2021/11/30 14:34:44;;;;;;;11.50;6.85;;;;;;;;;;5095944;28;20376;-82
2021/11/30 14:37:10;;;;;;;;;;;;;;;;;;5095223;28;20024;-82
2021/11/30 14:39:36;;;;;;;8.48;5.95;;;;;;;;;;5094988;28;20321;-82
2021/11/30 14:42:02;;;;;;;9.20;6.10;;;;;;;;;;5094573;28;20125;-82
2021/11/30 14:44:34;;;;;;;8.48;5.85;;;;;;;;;;5095972;28;20468;-85
2021/11/30 14:47:14;;;;;;;16.65;9.90;;;;;;;;;;5095287;28;20032;-81
2021/11/30 14:49:40;;;;;;;11.98;7.85;;;;;;;;;;5094336;28;20024;-82
2021/11/30 14:52:17;;;;;;;17.02;11.15;;;;;;;;;;5094234;28;20032;-82
2021/11/30 14:54:43;;;;;;;34.95;20.60;;;;;;;;;;5094279;28;20031;-82
2021/11/30 14:57:25;;;;;;;15.98;10.77;;;;;;;;;;5095291;28;20028;-81
2021/11/30 14:59:51;;;;;;;16.65;9.95;;;;;;;;;;5095177;28;20051;-84
2021/11/30 15:02:27;;;;;;;17.23;11.32;;;;;;;;;;5095309;28;20425;-82
2021/11/30 15:04:53;;;;;;;13.20;8.90;;;;;;;;;;5095465;28;20467;-84
2021/11/30 15:07:20;;;;;;;14.80;9.18;;;;;;;;;;5095538;28;20109;-80
2021/11/30 15:09:46;;;;;;;23.25;12.80;;;;;;;;;;5095750;28;20024;-82
2021/11/30 15:12:14;;;;;;;28.85;20.55;;;;;;;;;;5095539;28;20475;-80